Time;durP1;ratioP1;P1;durP2;ratioP2;P2;SDS_P1;SDS_P2;PMS_P1;PMS_P2;Temp;Humidity;BMP_temperature;BMP_pressure;BME280_temperature;BME280_humidity;BME280_pressure;Samples;Min_cycle;Max_cycle;Signal;HPM_P1;HPM_P2
2021/04/08 00:01:24;;;;;;;11.27;8.00;;;1.00;99.90;;;;;;5031737;28;20033;-70
2021/04/08 00:03:49;;;;;;;10.50;8.10;;;0.90;99.90;;;;;;5014699;28;20040;-71
2021/04/08 00:06:15;;;;;;;15.68;8.43;;;0.90;99.90;;;;;;5032592;28;20025;-70
2021/04/08 00:08:41;;;;;;;13.05;8.80;;;0.90;99.90;;;;;;5032604;28;20025;-71
2021/04/08 00:11:06;;;;;;;13.05;8.23;;;0.90;99.90;;;;;;5032535;28;20037;-71
2021/04/08 00:13:32;;;;;;;13.32;8.85;;;0.80;99.90;;;;;;5032275;28;20599;-71
2021/04/08 00:15:58;;;;;;;11.48;9.13;;;0.80;99.90;;;;;;5032438;28;20028;-70
2021/04/08 00:18:23;;;;;;;13.38;8.43;;;0.80;99.90;;;;;;5014700;28;20392;-71
2021/04/08 00:20:49;;;;;;;11.15;8.10;;;0.90;99.90;;;;;;5014501;28;20071;-70
2021/04/08 00:23:14;;;;;;;13.25;8.50;;;0.90;99.90;;;;;;5014670;28;20017;-71
2021/04/08 00:25:40;;;;;;;14.23;8.88;;;0.90;99.90;;;;;;5032168;28;20040;-72
2021/04/08 00:28:06;;;;;;;13.93;8.65;;;0.80;99.90;;;;;;5033411;28;20017;-72
2021/04/08 00:30:43;;;;;;;13.27;9.38;;;0.80;99.90;;;;;;5016814;28;20028;-72
2021/04/08 00:33:10;;;;;;;13.35;9.38;;;0.80;99.90;;;;;;5032359;28;20083;-71
2021/04/08 00:35:36;;;;;;;12.48;9.38;;;0.80;99.90;;;;;;5014239;28;20029;-71
2021/04/08 00:38:02;;;;;;;12.00;9.57;;;0.80;99.90;;;;;;5014485;28;20529;-71
2021/04/08 00:40:27;;;;;;;14.38;9.50;;;0.80;99.90;;;;;;5031938;28;20087;-71
2021/04/08 00:42:53;;;;;;;12.50;9.68;;;0.70;99.90;;;;;;5032057;28;20442;-71
2021/04/08 00:45:18;;;;;;;17.63;10.18;;;0.70;99.90;;;;;;5027623;28;20022;-71
2021/04/08 00:47:44;;;;;;;14.80;9.52;;;0.70;99.90;;;;;;5014616;28;20049;-71
2021/04/08 00:50:10;;;;;;;13.18;9.70;;;0.80;99.90;;;;;;5014144;28;20033;-70
2021/04/08 00:52:36;;;;;;;13.70;9.73;;;0.70;99.90;;;;;;5031852;28;20503;-70
2021/04/08 00:55:02;;;;;;;11.43;9.05;;;0.70;99.90;;;;;;5013768;28;20083;-71
2021/04/08 00:57:28;;;;;;;14.98;9.85;;;0.60;99.90;;;;;;5031822;28;20034;-71
2021/04/08 00:59:55;;;;;;;14.75;9.25;;;0.70;99.90;;;;;;5031748;28;20052;-71
2021/04/08 01:02:21;;;;;;;13.15;9.60;;;0.70;99.90;;;;;;5031701;28;20025;-70
2021/04/08 01:04:46;;;;;;;15.13;10.23;;;0.70;99.90;;;;;;5031539;28;20021;-71
2021/04/08 01:07:12;;;;;;;12.43;9.52;;;0.70;99.90;;;;;;5031730;28;20041;-70
2021/04/08 01:09:37;;;;;;;13.02;10.18;;;0.70;99.90;;;;;;5031738;28;20041;-70
2021/04/08 01:12:03;;;;;;;14.40;10.15;;;0.70;99.90;;;;;;5031710;28;20503;-70
2021/04/08 01:14:30;;;;;;;12.20;10.90;;;0.60;99.90;;;;;;5031319;28;20029;-70
2021/04/08 01:17:30;;;;;;;12.07;10.07;;;0.60;99.90;;;;;;5014100;28;20076;-70
2021/04/08 01:20:14;;;;;;;12.98;10.32;;;0.60;99.90;;;;;;5021417;28;20643;-70
2021/04/08 01:23:23;;;;;;;16.30;11.27;;;0.60;99.90;;;;;;5031502;28;20079;-70
2021/04/08 01:25:57;;;;;;;15.40;10.65;;;0.60;99.90;;;;;;5031382;28;20491;-70
2021/04/08 01:28:32;;;;;;;12.60;11.30;;;0.70;99.90;;;;;;5031626;28;20030;-72
2021/04/08 01:31:04;;;;;;;17.05;12.07;;;0.60;99.90;;;;;;5018754;28;20030;-72
2021/04/08 01:33:42;;;;;;;20.08;11.48;;;0.70;99.90;;;;;;5031024;28;20029;-71
2021/04/08 01:36:15;;;;;;;15.35;11.18;;;0.60;99.90;;;;;;5031525;28;20026;-72
2021/04/08 01:38:47;;;;;;;15.25;11.10;;;0.60;99.90;;;;;;5014040;28;20455;-72
2021/04/08 01:41:17;;;;;;;16.90;10.98;;;0.60;99.90;;;;;;5031339;28;20033;-72
2021/04/08 01:43:46;;;;;;;16.77;11.02;;;0.60;99.90;;;;;;5036367;28;20025;-72
2021/04/08 01:46:14;;;;;;;14.57;11.13;;;0.60;99.90;;;;;;5038899;28;20021;-72
2021/04/08 01:48:42;;;;;;;13.75;10.73;;;0.60;99.90;;;;;;5031306;28;20107;-72
2021/04/08 01:51:09;;;;;;;16.85;10.95;;;0.50;99.90;;;;;;5031421;28;20037;-72
2021/04/08 01:53:41;;;;;;;14.48;10.27;;;0.50;99.90;;;;;;5013195;28;20037;-72
2021/04/08 01:56:09;;;;;;;13.77;10.35;;;0.50;99.90;;;;;;5031307;28;20659;-71
2021/04/08 01:58:35;;;;;;;14.05;10.45;;;0.50;99.90;;;;;;5031295;28;20026;-71
2021/04/08 02:01:00;;;;;;;13.93;9.85;;;0.50;99.90;;;;;;5031085;28;20079;-71
2021/04/08 02:03:27;;;;;;;13.13;10.20;;;0.50;99.90;;;;;;5031038;28;20108;-73
2021/04/08 02:05:54;;;;;;;12.75;9.80;;;0.50;99.90;;;;;;5013412;28;20033;-71
2021/04/08 02:08:20;;;;;;;13.35;10.23;;;0.50;99.90;;;;;;5031257;28;20033;-71
2021/04/08 02:10:46;;;;;;;13.30;10.05;;;0.50;99.90;;;;;;5013525;28;20040;-72
2021/04/08 02:13:14;;;;;;;13.90;10.57;;;0.50;99.90;;;;;;5031053;28;20377;-71
2021/04/08 02:15:43;;;;;;;15.38;9.88;;;0.50;99.90;;;;;;5013174;28;20030;-72
2021/04/08 02:18:16;;;;;;;13.50;9.85;;;0.60;99.90;;;;;;5031090;28;20033;-72
2021/04/08 02:20:44;;;;;;;10.70;9.55;;;0.60;99.90;;;;;;5030829;28;20021;-72
2021/04/08 02:23:12;;;;;;;12.07;9.77;;;0.60;99.90;;;;;;5031368;28;20104;-70
2021/04/08 02:25:37;;;;;;;12.73;9.43;;;0.60;99.90;;;;;;5034304;28;20030;-71
2021/04/08 02:28:07;;;;;;;12.20;9.30;;;0.60;99.90;;;;;;5016811;28;20369;-71
2021/04/08 02:30:45;;;;;;;16.33;10.20;;;0.60;99.90;;;;;;5016640;28;20026;-71
2021/04/08 02:33:14;;;;;;;15.55;10.38;;;0.60;99.90;;;;;;5016534;28;20024;-72
2021/04/08 02:35:40;;;;;;;14.80;10.70;;;0.60;99.90;;;;;;5034183;28;20064;-72
2021/04/08 02:38:05;;;;;;;14.93;10.77;;;0.60;99.90;;;;;;5034390;28;20028;-72
2021/04/08 02:40:31;;;;;;;20.85;11.55;;;0.50;99.90;;;;;;5034232;28;20089;-72
2021/04/08 02:42:56;;;;;;;13.57;11.13;;;0.50;99.90;;;;;;5016505;28;20025;-71
2021/04/08 02:45:22;;;;;;;14.25;10.50;;;0.50;99.90;;;;;;5033973;28;20475;-72
2021/04/08 02:47:47;;;;;;;15.35;10.75;;;0.50;99.90;;;;;;5034134;28;20051;-72
2021/04/08 02:50:13;;;;;;;13.10;10.38;;;0.50;99.90;;;;;;5034165;28;20025;-72
2021/04/08 02:52:56;;;;;;;17.45;12.20;;;0.50;99.90;;;;;;5034036;28;20022;-72
2021/04/08 02:55:26;;;;;;;12.38;10.82;;;0.50;99.90;;;;;;5016126;28;20079;-72
2021/04/08 02:58:02;;;;;;;15.13;10.48;;;0.40;99.90;;;;;;5034143;28;20095;-72
2021/04/08 03:00:30;;;;;;;14.60;11.75;;;0.40;99.90;;;;;;5033944;28;20021;-72
2021/04/08 03:02:59;;;;;;;13.82;11.10;;;0.50;99.90;;;;;;5016047;28;20038;-71
2021/04/08 03:05:26;;;;;;;15.38;10.98;;;0.50;99.90;;;;;;5033640;28;20045;-72
2021/04/08 03:07:54;;;;;;;17.10;11.60;;;0.40;99.90;;;;;;5033796;28;20083;-73
2021/04/08 03:10:20;;;;;;;13.68;10.82;;;0.40;99.90;;;;;;5016015;28;20036;-72
2021/04/08 03:12:51;;;;;;;18.95;11.48;;;0.50;99.90;;;;;;5033541;28;20030;-73
2021/04/08 03:15:26;;;;;;;17.80;12.05;;;0.40;99.90;;;;;;5033511;28;20028;-71
2021/04/08 03:17:52;;;;;;;13.30;8.80;;;0.30;99.90;;;;;;5034127;28;20068;-73
2021/04/08 03:20:18;;;;;;;13.50;10.95;;;0.30;99.90;;;;;;5015823;28;20042;-71
2021/04/08 03:22:45;;;;;;;16.10;11.50;;;0.30;99.90;;;;;;5033556;28;20096;-73
2021/04/08 03:25:12;;;;;;;16.05;11.77;;;0.30;99.90;;;;;;5033436;28;20443;-72
2021/04/08 03:27:39;;;;;;;12.73;10.90;;;0.30;99.90;;;;;;5033461;28;20079;-72
2021/04/08 03:30:10;;;;;;;15.60;10.90;;;0.30;99.90;;;;;;5033404;28;20498;-71
2021/04/08 03:32:36;;;;;;;17.20;14.15;;;0.30;99.90;;;;;;5020583;28;20033;-71
2021/04/08 03:35:06;;;;;;;20.05;12.15;;;0.20;99.90;;;;;;5033070;28;20495;-72
2021/04/08 03:37:32;;;;;;;14.23;11.25;;;0.20;99.90;;;;;;5033303;28;20108;-71
2021/04/08 03:39:58;;;;;;;16.40;11.30;;;0.20;99.90;;;;;;5033182;28;20493;-73
2021/04/08 03:42:24;;;;;;;16.05;13.05;;;0.10;99.90;;;;;;5033317;28;20105;-71
2021/04/08 03:44:51;;;;;;;18.77;12.02;;;0.10;99.90;;;;;;5033115;28;20032;-71
2021/04/08 03:47:16;;;;;;;16.10;11.77;;;0.10;99.90;;;;;;5015621;28;20028;-71
2021/04/08 03:49:43;;;;;;;15.88;11.65;;;0.00;99.90;;;;;;5033398;28;20021;-72
2021/04/08 03:52:11;;;;;;;17.75;11.13;;;0.00;99.90;;;;;;5033277;28;20104;-71
2021/04/08 03:54:37;;;;;;;15.60;10.75;;;0.10;99.90;;;;;;5032907;28;20486;-71
2021/04/08 03:57:07;;;;;;;17.25;11.68;;;0.10;99.90;;;;;;5015582;28;20025;-71
2021/04/08 03:59:33;;;;;;;15.88;10.70;;;0.10;99.90;;;;;;5032935;28;20025;-71
2021/04/08 04:01:59;;;;;;;13.75;11.25;;;0.00;99.90;;;;;;5015431;28;20025;-71
2021/04/08 04:04:26;;;;;;;13.48;11.02;;;-0.10;99.90;;;;;;5033252;28;20586;-72
2021/04/08 04:06:54;;;;;;;17.13;11.48;;;-0.10;99.90;;;;;;5032997;28;20018;-71
2021/04/08 04:09:21;;;;;;;16.02;11.05;;;-0.10;99.90;;;;;;5032766;28;20095;-72
2021/04/08 04:11:51;;;;;;;17.02;11.85;;;-0.10;99.90;;;;;;5032478;28;20022;-73
2021/04/08 04:14:22;;;;;;;14.80;11.63;;;-0.10;99.90;;;;;;5032394;28;20028;-73
2021/04/08 04:16:52;;;;;;;14.15;12.15;;;-0.10;99.90;;;;;;5032771;28;20072;-75
2021/04/08 04:19:18;;;;;;;17.20;13.00;;;-0.10;99.90;;;;;;5032502;28;20031;-72
2021/04/08 04:21:43;;;;;;;14.82;11.73;;;-0.20;99.90;;;;;;5014736;28;20108;-72
2021/04/08 04:24:09;;;;;;;14.60;11.50;;;-0.20;99.90;;;;;;5014473;28;20021;-72
2021/04/08 04:26:35;;;;;;;16.98;11.98;;;-0.30;99.90;;;;;;5014691;28;20033;-72
2021/04/08 04:29:00;;;;;;;15.82;11.93;;;-0.30;99.90;;;;;;5032325;28;20499;-73
2021/04/08 04:31:26;;;;;;;16.15;12.07;;;-0.30;99.90;;;;;;5032363;28;20029;-72
2021/04/08 04:33:52;;;;;;;16.13;12.57;;;-0.30;99.90;;;;;;5032102;28;20502;-73
2021/04/08 04:36:18;;;;;;;15.15;12.60;;;-0.30;99.90;;;;;;5032990;28;20029;-72
2021/04/08 04:38:44;;;;;;;16.40;12.68;;;-0.30;99.90;;;;;;5032483;28;20036;-71
2021/04/08 04:41:10;;;;;;;17.27;12.60;;;-0.40;99.90;;;;;;5032144;28;20033;-72
2021/04/08 04:43:35;;;;;;;14.98;12.85;;;-0.30;99.90;;;;;;5014133;28;20028;-72
2021/04/08 04:46:01;;;;;;;18.15;13.05;;;-0.40;99.90;;;;;;5013860;28;20031;-72
2021/04/08 04:48:27;;;;;;;20.52;13.10;;;-0.30;99.90;;;;;;5014229;28;20025;-73
2021/04/08 04:50:52;;;;;;;17.88;13.50;;;-0.30;99.90;;;;;;5014417;28;20108;-73
2021/04/08 04:53:19;;;;;;;18.52;12.80;;;-0.30;99.90;;;;;;5031789;28;20071;-72
2021/04/08 04:55:44;;;;;;;18.75;12.98;;;-0.30;99.90;;;;;;5031871;28;20471;-72
2021/04/08 04:58:10;;;;;;;17.10;13.40;;;-0.30;99.90;;;;;;5031918;28;20036;-71
2021/04/08 05:00:36;;;;;;;17.38;13.38;;;-0.30;99.90;;;;;;5031798;28;20071;-72
2021/04/08 05:03:01;;;;;;;14.68;13.02;;;-0.20;99.90;;;;;;5014111;28;20045;-72
2021/04/08 05:05:27;;;;;;;17.50;13.40;;;-0.20;99.90;;;;;;5031649;28;20064;-72
2021/04/08 05:07:52;;;;;;;16.67;12.85;;;-0.40;99.90;;;;;;5014182;28;20025;-72
2021/04/08 05:10:18;;;;;;;16.10;13.38;;;-0.30;99.90;;;;;;5031689;28;20067;-72
2021/04/08 05:12:44;;;;;;;17.33;14.70;;;-0.40;99.90;;;;;;5013986;28;20025;-72
2021/04/08 05:15:10;;;;;;;16.85;14.60;;;-0.40;99.90;;;;;;5013919;28;20076;-72
2021/04/08 05:17:35;;;;;;;21.15;15.43;;;-0.30;99.90;;;;;;5031618;28;20057;-72
2021/04/08 05:20:01;;;;;;;18.77;13.77;;;-0.40;99.90;;;;;;5031780;28;20032;-72
2021/04/08 05:22:26;;;;;;;16.65;14.48;;;-0.40;99.90;;;;;;5031541;28;20545;-72
2021/04/08 05:24:53;;;;;;;24.35;14.77;;;-0.30;99.90;;;;;;5031591;28;20030;-72
2021/04/08 05:27:19;;;;;;;21.60;17.40;;;-0.30;99.90;;;;;;5013829;28;20069;-73
2021/04/08 05:29:44;;;;;;;20.00;16.08;;;-0.20;99.90;;;;;;5031582;28;20029;-72
2021/04/08 05:32:10;;;;;;;19.23;16.10;;;-0.20;99.90;;;;;;5013831;28;20029;-71
2021/04/08 05:34:35;;;;;;;20.00;16.25;;;-0.10;99.90;;;;;;5031327;28;20432;-71
2021/04/08 05:37:01;;;;;;;18.35;16.13;;;0.00;99.90;;;;;;5031465;28;20044;-71
2021/04/08 05:39:28;;;;;;;21.02;15.82;;;0.20;99.90;;;;;;5031400;28;20052;-72
2021/04/08 05:41:54;;;;;;;17.63;14.45;;;0.20;99.90;;;;;;5031372;28;20013;-72
2021/04/08 05:44:19;;;;;;;22.27;16.08;;;0.20;99.90;;;;;;5041596;28;20075;-71
2021/04/08 05:46:45;;;;;;;19.63;14.80;;;0.20;99.90;;;;;;5034486;28;20400;-72
2021/04/08 05:49:10;;;;;;;17.58;14.77;;;0.30;99.90;;;;;;5013581;28;20018;-71
2021/04/08 05:51:36;;;;;;;17.58;14.43;;;0.30;99.90;;;;;;5031408;28;20655;-72
2021/04/08 05:54:01;;;;;;;20.00;13.75;;;0.30;99.90;;;;;;5030999;28;20049;-71
2021/04/08 05:56:28;;;;;;;19.45;13.75;;;0.40;99.90;;;;;;5031272;28;20466;-72
2021/04/08 05:58:53;;;;;;;21.40;14.52;;;0.40;99.90;;;;;;5032985;28;20029;-72
2021/04/08 06:01:19;;;;;;;19.77;14.25;;;0.40;99.90;;;;;;5034962;28;20170;-72
2021/04/08 06:03:44;;;;;;;20.15;15.15;;;0.40;99.90;;;;;;5034848;28;20040;-71
2021/04/08 06:06:10;;;;;;;18.60;15.05;;;0.40;99.90;;;;;;5034988;28;20159;-72
2021/04/08 06:08:36;;;;;;;18.70;14.85;;;0.50;99.90;;;;;;5017191;28;20021;-72
2021/04/08 06:11:02;;;;;;;18.80;14.00;;;0.50;99.90;;;;;;5017344;28;20040;-72
2021/04/08 06:13:27;;;;;;;25.50;16.63;;;0.50;99.90;;;;;;5034577;28;20079;-72
2021/04/08 06:15:53;;;;;;;19.45;15.52;;;0.60;99.90;;;;;;5017061;28;20076;-73
2021/04/08 06:18:20;;;;;;;18.42;14.18;;;0.60;99.90;;;;;;5034903;28;20026;-72
2021/04/08 06:20:45;;;;;;;22.33;15.15;;;0.70;99.90;;;;;;5017143;28;20056;-72
2021/04/08 06:23:11;;;;;;;17.77;13.80;;;0.60;99.90;;;;;;5016851;28;20049;-72
2021/04/08 06:25:36;;;;;;;19.38;14.32;;;0.50;99.90;;;;;;5035196;28;20028;-72
2021/04/08 06:28:02;;;;;;;20.48;14.50;;;0.50;99.90;;;;;;5017681;28;20049;-73
2021/04/08 06:30:28;;;;;;;20.10;14.52;;;0.60;99.90;;;;;;5034946;28;20037;-73
2021/04/08 06:32:54;;;;;;;18.55;13.02;;;0.70;99.90;;;;;;5016935;28;20032;-72
2021/04/08 06:35:21;;;;;;;16.33;13.38;;;0.80;99.90;;;;;;5034245;28;20524;-72
2021/04/08 06:37:46;;;;;;;18.13;14.05;;;0.80;99.90;;;;;;5016964;28;20029;-71
2021/04/08 06:40:13;;;;;;;19.05;14.07;;;0.90;99.90;;;;;;5034498;28;20030;-72
2021/04/08 06:42:40;;;;;;;20.63;14.65;;;0.90;99.90;;;;;;5016569;28;20030;-71
2021/04/08 06:45:07;;;;;;;16.67;12.43;;;0.90;99.90;;;;;;5029753;28;20026;-72
2021/04/08 06:48:08;;;;;;;18.83;14.00;;;0.90;99.90;;;;;;5034445;28;20092;-72
2021/04/08 06:50:36;;;;;;;62.95;56.50;;;1.00;99.90;;;;;;5034403;28;20045;-71
2021/04/08 06:53:03;;;;;;;22.50;15.68;;;1.10;99.90;;;;;;5016240;28;20040;-72
2021/04/08 06:55:30;;;;;;;20.85;17.02;;;1.00;99.90;;;;;;5033951;28;20025;-71
2021/04/08 06:57:57;;;;;;;72.75;65.80;;;1.20;99.90;;;;;;5016083;28;20029;-71
2021/04/08 07:00:22;;;;;;;21.55;13.55;;;1.10;99.90;;;;;;5016285;28;20698;-72
2021/04/08 07:02:49;;;;;;;16.40;12.10;;;1.10;99.90;;;;;;5016434;28;20037;-71
2021/04/08 07:05:14;;;;;;;18.05;12.73;;;1.10;99.90;;;;;;5016049;28;20164;-72
2021/04/08 07:07:40;;;;;;;20.17;12.52;;;1.20;99.90;;;;;;5033823;28;20112;-71
2021/04/08 07:10:06;;;;;;;20.52;18.48;;;1.30;99.90;;;;;;5033462;28;20104;-72
2021/04/08 07:12:32;;;;;;;17.90;13.60;;;1.40;99.90;;;;;;5033657;28;20495;-72
2021/04/08 07:14:58;;;;;;;21.17;17.90;;;1.20;99.90;;;;;;5015903;28;20061;-72
2021/04/08 07:17:24;;;;;;;17.25;13.65;;;1.10;99.90;;;;;;5033717;28;20052;-72
2021/04/08 07:19:50;;;;;;;17.95;11.95;;;1.30;99.90;;;;;;5015852;28;20083;-72
2021/04/08 07:22:17;;;;;;;17.20;11.88;;;1.40;99.90;;;;;;5033589;28;20030;-72
2021/04/08 07:24:48;;;;;;;14.77;11.45;;;1.30;99.90;;;;;;5015651;28;20487;-72
2021/04/08 07:27:18;;;;;;;17.65;13.00;;;1.40;99.90;;;;;;5033525;28;20049;-72
2021/04/08 07:30:02;;;;;;;15.85;12.27;;;1.50;99.90;;;;;;5033507;28;20025;-72
2021/04/08 07:32:33;;;;;;;15.77;12.90;;;1.50;99.90;;;;;;5033287;28;20033;-72
2021/04/08 07:35:11;;;;;;;17.52;11.88;;;1.60;99.90;;;;;;5015412;28;20030;-72
2021/04/08 07:37:37;;;;;;;13.57;12.05;;;1.70;99.90;;;;;;5015617;28;20080;-72
2021/04/08 07:40:05;;;;;;;16.58;13.05;;;1.80;99.90;;;;;;5033097;28;20033;-72
2021/04/08 07:42:32;;;;;;;20.05;16.13;;;2.00;99.90;;;;;;5033194;28;20076;-72
2021/04/08 07:45:04;;;;;;;16.10;12.13;;;2.20;99.90;;;;;;5033071;28;20026;-72
2021/04/08 07:47:33;;;;;;;16.45;11.40;;;2.00;99.90;;;;;;5033054;28;20033;-72
2021/04/08 07:50:05;;;;;;;15.95;11.68;;;1.90;99.90;;;;;;5033063;28;20029;-72
2021/04/08 07:52:43;;;;;;;17.23;11.55;;;2.10;99.90;;;;;;5015233;28;20035;-71
2021/04/08 07:55:13;;;;;;;13.63;9.88;;;2.20;99.90;;;;;;5032779;28;20029;-72
2021/04/08 07:57:53;;;;;;;14.82;10.85;;;2.40;99.90;;;;;;5032908;28;20033;-72
2021/04/08 08:00:22;;;;;;;13.70;10.05;;;2.40;99.90;;;;;;5015029;28;20032;-71
2021/04/08 08:02:48;;;;;;;16.33;10.70;;;2.50;99.90;;;;;;5032676;28;20109;-72
2021/04/08 08:05:18;;;;;;;12.07;9.05;;;2.60;99.90;;;;;;5032625;28;20052;-72
2021/04/08 08:07:45;;;;;;;13.18;9.15;;;2.50;99.90;;;;;;5032713;28;20021;-71
2021/04/08 08:10:15;;;;;;;12.13;9.48;;;2.50;99.90;;;;;;5032600;28;20029;-72
2021/04/08 08:12:40;;;;;;;13.98;9.25;;;2.60;99.90;;;;;;5014890;28;20112;-72
2021/04/08 08:15:19;;;;;;;12.98;9.13;;;2.70;99.90;;;;;;5032493;28;20060;-72
2021/04/08 08:17:46;;;;;;;13.63;9.32;;;2.80;99.90;;;;;;5014819;28;20090;-72
2021/04/08 08:20:12;;;;;;;11.27;8.10;;;2.70;99.90;;;;;;5014581;28;20052;-72
2021/04/08 08:22:40;;;;;;;12.57;8.80;;;2.70;99.90;;;;;;5013932;28;20036;-72
2021/04/08 08:25:06;;;;;;;14.90;9.40;;;3.00;99.90;;;;;;5014601;28;20029;-72
2021/04/08 08:27:42;;;;;;;11.60;8.48;;;3.10;99.90;;;;;;5014644;28;20044;-72
2021/04/08 08:30:16;;;;;;;12.55;8.38;;;3.10;99.90;;;;;;5032342;28;20441;-72
2021/04/08 08:33:15;;;;;;;13.05;8.95;;;3.10;99.90;;;;;;5032278;28;20037;-72
2021/04/08 08:35:40;;;;;;;12.30;8.43;;;3.10;99.90;;;;;;5032068;28;20434;-72
2021/04/08 08:38:12;;;;;;;12.25;8.65;;;3.20;99.90;;;;;;5032213;28;20021;-72
2021/04/08 08:40:38;;;;;;;13.20;7.50;;;3.20;99.90;;;;;;5019151;28;20080;-73
2021/04/08 08:43:05;;;;;;;15.65;8.35;;;3.00;99.90;;;;;;5032241;28;20368;-72
2021/04/08 08:45:32;;;;;;;13.40;7.97;;;3.00;99.90;;;;;;4994713;28;20053;-72
2021/04/08 08:48:02;;;;;;;10.90;7.45;;;3.00;99.90;;;;;;5025937;28;20051;-72
2021/04/08 08:50:27;;;;;;;11.63;8.55;;;3.00;99.90;;;;;;5014405;28;20129;-72
2021/04/08 08:52:53;;;;;;;11.10;7.43;;;3.10;99.90;;;;;;5031950;28;20061;-72
2021/04/08 08:55:20;;;;;;;10.93;7.20;;;3.30;99.90;;;;;;5031902;28;20060;-72
2021/04/08 08:57:54;;;;;;;9.95;7.13;;;3.10;99.90;;;;;;5031983;28;20032;-72
2021/04/08 09:00:22;;;;;;;11.07;7.55;;;3.10;99.90;;;;;;5031948;28;20025;-72
2021/04/08 09:02:48;;;;;;;11.55;7.47;;;3.20;99.90;;;;;;5031739;28;20021;-72
2021/04/08 09:05:17;;;;;;;9.38;7.35;;;3.30;99.90;;;;;;5031774;28;20022;-72
2021/04/08 09:07:47;;;;;;;11.63;7.35;;;3.20;99.90;;;;;;5014058;28;20018;-72
2021/04/08 09:10:15;;;;;;;9.60;7.72;;;3.30;99.90;;;;;;5031767;28;20025;-72
2021/04/08 09:12:41;;;;;;;11.77;7.43;;;3.50;99.90;;;;;;5013921;28;20410;-71
2021/04/08 09:15:07;;;;;;;11.20;8.27;;;3.60;99.90;;;;;;5031631;28;20033;-71
2021/04/08 09:17:47;;;;;;;9.00;6.70;;;3.70;99.90;;;;;;5032155;28;20029;-71
2021/04/08 09:20:18;;;;;;;9.93;6.90;;;3.80;99.90;;;;;;5031595;28;20033;-72
2021/04/08 09:22:58;;;;;;;11.35;6.63;;;3.60;99.90;;;;;;5031569;28;20038;-72
2021/04/08 09:25:31;;;;;;;10.07;7.43;;;3.70;99.90;;;;;;5031559;28;20101;-72
2021/04/08 09:28:01;;;;;;;10.60;7.70;;;3.80;99.90;;;;;;5013977;28;20021;-71
2021/04/08 09:33:18;;;;;;;8.73;6.43;;;3.70;99.90;;;;;;5034213;28;20080;-71
2021/04/08 09:35:44;;;;;;;11.25;7.00;;;4.00;99.90;;;;;;5035879;28;20076;-71
2021/04/08 09:38:09;;;;;;;8.30;6.30;;;4.10;99.90;;;;;;5035743;28;20111;-71
2021/04/08 09:40:43;;;;;;;10.50;6.57;;;4.00;99.90;;;;;;5035358;28;20448;-71
2021/04/08 09:43:14;;;;;;;11.10;6.20;;;3.90;99.90;;;;;;5035469;28;20387;-71
2021/04/08 09:45:55;;;;;;;10.05;5.85;;;3.90;99.90;;;;;;5017598;28;20079;-71
2021/04/08 09:48:24;;;;;;;8.45;5.90;;;3.90;99.90;;;;;;5035359;28;20025;-71
2021/04/08 09:50:57;;;;;;;9.88;6.40;;;3.80;99.90;;;;;;5017564;28;20025;-71
2021/04/08 09:53:48;;;;;;;8.00;5.82;;;3.80;99.90;;;;;;5034956;28;20029;-71
2021/04/08 09:56:14;;;;;;;9.82;5.95;;;3.80;99.90;;;;;;5021600;28;20065;-71
2021/04/08 09:58:39;;;;;;;7.22;5.88;;;4.00;99.90;;;;;;5046679;28;20425;-71
2021/04/08 10:01:08;;;;;;;8.77;6.03;;;4.20;99.90;;;;;;5045326;28;20021;-71
2021/04/08 10:03:41;;;;;;;7.43;5.53;;;4.60;99.90;;;;;;5031085;28;20017;-71
2021/04/08 10:06:21;;;;;;;7.82;5.47;;;4.70;99.90;;;;;;5038391;28;20013;-71
2021/04/08 10:08:48;;;;;;;7.35;5.05;;;4.50;99.90;;;;;;5028740;28;20017;-71
2021/04/08 10:11:30;;;;;;;7.45;4.85;;;4.80;99.90;;;;;;5034469;28;20029;-71
2021/04/08 10:13:56;;;;;;;6.40;3.85;;;4.90;99.90;;;;;;5028393;28;20032;-70
2021/04/08 10:16:22;;;;;;;7.03;4.60;;;4.70;99.90;;;;;;5044659;28;20029;-70
2021/04/08 10:18:58;;;;;;;5.38;4.55;;;4.40;99.90;;;;;;5046442;28;20539;-69
2021/04/08 10:21:24;;;;;;;7.80;4.53;;;4.50;99.90;;;;;;5026398;28;20049;-70
2021/04/08 10:23:52;;;;;;;9.70;5.13;;;4.40;99.90;;;;;;5047568;28;20017;-72
2021/04/08 10:26:18;;;;;;;6.28;4.25;;;4.30;99.90;;;;;;5044129;28;20776;-71
2021/04/08 10:28:49;;;;;;;9.95;4.55;;;4.10;99.90;;;;;;5039615;28;20026;-69
2021/04/08 10:31:30;;;;;;;8.20;4.82;;;4.10;99.90;;;;;;5026011;28;20442;-71
2021/04/08 10:34:07;;;;;;;5.05;4.30;;;4.00;99.90;;;;;;5044737;28;20477;-69
2021/04/08 10:36:32;;;;;;;6.18;4.13;;;4.00;99.90;;;;;;5035842;28;20099;-70
2021/04/08 10:39:17;;;;;;;8.60;4.22;;;4.30;99.90;;;;;;5044151;28;20079;-69
2021/04/08 10:42:12;;;;;;;5.55;3.85;;;4.10;99.90;;;;;;5037802;28;20048;-70
2021/04/08 10:44:40;;;;;;;7.18;4.50;;;4.20;99.90;;;;;;5034235;28;20075;-70
2021/04/08 10:47:06;;;;;;;7.55;4.55;;;4.20;99.90;;;;;;5024430;28;20033;-70
2021/04/08 10:49:34;;;;;;;9.65;4.03;;;4.50;99.90;;;;;;5031501;28;20025;-71
2021/04/08 10:52:08;;;;;;;6.07;3.97;;;4.50;99.90;;;;;;5039519;28;20030;-70
2021/04/08 10:54:35;;;;;;;7.20;4.10;;;4.60;99.90;;;;;;5035906;28;20064;-70
2021/04/08 10:57:03;;;;;;;10.13;4.95;;;4.60;99.90;;;;;;5031704;28;20043;-71
2021/04/08 10:59:30;;;;;;;6.25;4.53;;;4.40;99.90;;;;;;5042065;28;20029;-70
2021/04/08 11:01:58;;;;;;;6.22;4.35;;;4.30;99.90;;;;;;5047420;28;20032;-71
2021/04/08 11:04:23;;;;;;;6.53;4.70;;;4.20;99.90;;;;;;5042718;28;20017;-70
2021/04/08 11:06:50;;;;;;;6.60;3.75;;;4.20;99.90;;;;;;5045213;28;20385;-69
2021/04/08 11:09:22;;;;;;;8.63;4.60;;;4.30;99.90;;;;;;5026626;28;20025;-70
2021/04/08 11:11:49;;;;;;;4.80;4.00;;;4.30;99.90;;;;;;5027278;28;20525;-70
2021/04/08 11:14:26;;;;;;;12.85;5.13;;;4.30;99.90;;;;;;5043353;28;20482;-71
2021/04/08 11:16:54;;;;;;;7.60;4.53;;;4.30;99.90;;;;;;5027356;28;20055;-71
2021/04/08 11:19:20;;;;;;;8.00;4.55;;;4.40;99.90;;;;;;5042110;28;20030;-73
2021/04/08 11:21:46;;;;;;;6.55;4.30;;;4.30;99.90;;;;;;5027004;28;20021;-71
2021/04/08 11:24:13;;;;;;;7.80;4.57;;;4.40;99.90;;;;;;5025941;28;20022;-71
2021/04/08 11:26:48;;;;;;;6.93;4.50;;;4.30;99.90;;;;;;5044652;28;20024;-70
2021/04/08 11:29:26;;;;;;;8.70;5.72;;;4.40;99.90;;;;;;5024907;28;20018;-75
2021/04/08 11:32:12;;;;;;;7.05;4.40;;;4.50;99.90;;;;;;5046534;28;20104;-69
2021/04/08 11:34:42;;;;;;;5.75;3.80;;;4.40;99.90;;;;;;5031901;28;20021;-70
2021/04/08 11:37:08;;;;;;;5.95;3.75;;;4.50;99.90;;;;;;5035026;28;20114;-70
2021/04/08 11:39:34;;;;;;;6.47;4.07;;;4.70;99.90;;;;;;5015427;28;20025;-70
2021/04/08 11:42:19;;;;;;;3.85;3.13;;;4.90;99.90;;;;;;5033030;28;20033;-69
2021/04/08 11:44:45;;;;;;;7.32;3.10;;;4.90;99.90;;;;;;5046310;28;20044;-70
2021/04/08 11:47:17;;;;;;;4.32;2.55;;;5.10;99.90;;;;;;5032987;28;20028;-71
2021/04/08 11:49:48;;;;;;;2.55;2.30;;;5.30;99.90;;;;;;5032857;28;20400;-73
2021/04/08 11:52:16;;;;;;;6.18;2.60;;;5.50;99.90;;;;;;5032882;28;20024;-73
2021/04/08 11:55:08;;;;;;;5.65;2.75;;;5.90;99.90;;;;;;5032623;28;20514;-72
2021/04/08 11:57:35;;;;;;;4.65;2.30;;;5.90;99.90;;;;;;5032835;28;20021;-71
2021/04/08 12:00:03;;;;;;;2.50;2.20;;;6.10;99.90;;;;;;5032727;28;20108;-71
2021/04/08 12:02:30;;;;;;;3.45;2.00;;;6.00;99.90;;;;;;5014940;28;20448;-70
2021/04/08 12:04:56;;;;;;;3.08;2.42;;;5.80;99.90;;;;;;5015126;28;20040;-70
2021/04/08 12:07:22;;;;;;;4.40;2.80;;;5.70;99.90;;;;;;5032686;28;20491;-71
2021/04/08 12:09:48;;;;;;;5.55;3.17;;;5.70;99.90;;;;;;5032793;28;20024;-71
2021/04/08 12:12:15;;;;;;;6.75;3.17;;;5.50;99.90;;;;;;5032524;28;20032;-71
2021/04/08 12:14:57;;;;;;;5.03;2.78;;;5.60;99.90;;;;;;5032278;28;20069;-72
2021/04/08 12:17:24;;;;;;;3.88;3.20;;;5.40;99.90;;;;;;5032479;28;20043;-72
2021/04/08 12:19:50;;;;;;;4.55;3.13;;;5.30;99.90;;;;;;5032392;28;20491;-73
2021/04/08 12:22:16;;;;;;;4.07;2.90;;;5.20;99.90;;;;;;5032367;28;20033;-73
2021/04/08 12:25:12;;;;;;;4.97;3.15;;;4.90;99.90;;;;;;5014334;28;20033;-72
2021/04/08 12:27:39;;;;;;;5.65;2.90;;;4.80;99.90;;;;;;5019666;28;20025;-72
2021/04/08 12:30:07;;;;;;;4.80;2.92;;;4.80;99.90;;;;;;5032359;28;20080;-73
2021/04/08 12:32:32;;;;;;;5.80;3.40;;;4.80;99.90;;;;;;5032248;28;20388;-73
2021/04/08 12:34:58;;;;;;;5.50;3.42;;;4.70;99.90;;;;;;5031922;28;20040;-73
2021/04/08 12:37:25;;;;;;;7.03;3.25;;;4.80;99.90;;;;;;5032162;28;20117;-73
2021/04/08 12:39:51;;;;;;;16.45;10.38;;;4.80;99.90;;;;;;5032043;28;20025;-73
2021/04/08 12:42:17;;;;;;;7.18;5.03;;;4.90;99.90;;;;;;5014321;28;20065;-72
2021/04/08 12:44:43;;;;;;;5.93;3.53;;;4.70;99.90;;;;;;5045226;28;20672;-71
2021/04/08 12:47:09;;;;;;;5.43;3.60;;;5.00;99.90;;;;;;5032281;28;20030;-71
2021/04/08 12:49:34;;;;;;;4.70;3.25;;;5.00;99.90;;;;;;5014283;28;20022;-70
2021/04/08 12:52:00;;;;;;;4.28;3.00;;;5.20;99.90;;;;;;5031681;28;20033;-70
2021/04/08 12:54:26;;;;;;;5.10;2.80;;;5.30;99.90;;;;;;5031621;28;20029;-73